sensor_id;sensor_type;location;lat;lon;timestamp;pressure;altitude;pressure_sealevel;temperature;humidity
20909;BME280;10614;53.198;6.570;2022-08-25T00:00:12;101873.47;;;23.27;nan
20909;BME280;10614;53.198;6.570;2022-08-25T00:02:13;101879.94;;;23.24;nan
20909;BME280;10614;53.198;6.570;2022-08-25T00:04:18;101871.28;;;23.21;nan
20909;BME280;10614;53.198;6.570;2022-08-25T00:06:20;101877.59;;;23.20;nan
20909;BME280;10614;53.198;6.570;2022-08-25T00:08:21;101874.19;;;23.17;nan
20909;BME280;10614;53.198;6.570;2022-08-25T00:10:23;101871.63;;;23.16;nan
20909;BME280;10614;53.198;6.570;2022-08-25T00:12:25;101869.31;;;23.11;nan
20909;BME280;10614;53.198;6.570;2022-08-25T00:14:30;101871.34;;;23.08;nan
20909;BME280;10614;53.198;6.570;2022-08-25T00:16:32;101873.19;;;23.07;nan
20909;BME280;10614;53.198;6.570;2022-08-25T00:18:34;101879.66;;;23.05;nan
20909;BME280;10614;53.198;6.570;2022-08-25T00:20:38;101870.84;;;23.03;nan
20909;BME280;10614;53.198;6.570;2022-08-25T00:22:40;101870.97;;;23.01;nan
20909;BME280;10614;53.198;6.570;2022-08-25T00:24:41;101871.94;;;23.00;nan
20909;BME280;10614;53.198;6.570;2022-08-25T00:26:46;101874.75;;;22.99;nan
20909;BME280;10614;53.198;6.570;2022-08-25T00:28:48;101877.53;;;22.97;nan
20909;BME280;10614;53.198;6.570;2022-08-25T00:30:50;101872.25;;;22.95;nan
20909;BME280;10614;53.198;6.570;2022-08-25T00:32:51;101867.75;;;22.96;nan
20909;BME280;10614;53.198;6.570;2022-08-25T00:34:53;101875.94;;;22.94;nan
20909;BME280;10614;53.198;6.570;2022-08-25T00:36:56;101865.41;;;22.91;nan
20909;BME280;10614;53.198;6.570;2022-08-25T00:38:58;101870.03;;;22.89;nan
20909;BME280;10614;53.198;6.570;2022-08-25T00:40:59;101872.72;;;22.89;nan
20909;BME280;10614;53.198;6.570;2022-08-25T00:43:07;101872.84;;;22.88;nan
20909;BME280;10614;53.198;6.570;2022-08-25T00:45:09;101873.06;;;22.85;nan
20909;BME280;10614;53.198;6.570;2022-08-25T00:47:11;101874.91;;;22.84;nan
20909;BME280;10614;53.198;6.570;2022-08-25T00:49:16;101882.22;;;22.82;nan
20909;BME280;10614;53.198;6.570;2022-08-25T00:51:24;101883.19;;;22.81;nan
20909;BME280;10614;53.198;6.570;2022-08-25T00:53:29;101878.91;;;22.79;nan
20909;BME280;10614;53.198;6.570;2022-08-25T00:55:34;101879.78;;;22.79;nan
20909;BME280;10614;53.198;6.570;2022-08-25T00:57:42;101879.03;;;22.77;nan
20909;BME280;10614;53.198;6.570;2022-08-25T00:59:44;101882.81;;;22.74;nan
20909;BME280;10614;53.198;6.570;2022-08-25T01:01:47;101890.09;;;22.72;nan
20909;BME280;10614;53.198;6.570;2022-08-25T01:03:49;101894.72;;;22.70;nan
20909;BME280;10614;53.198;6.570;2022-08-25T01:05:51;101886.16;;;22.65;nan
20909;BME280;10614;53.198;6.570;2022-08-25T01:07:55;101889.84;;;22.64;nan
20909;BME280;10614;53.198;6.570;2022-08-25T01:09:59;101883.81;;;22.61;nan
20909;BME280;10614;53.198;6.570;2022-08-25T01:12:01;101888.25;;;22.62;nan
20909;BME280;10614;53.198;6.570;2022-08-25T01:14:03;101890.03;;;22.61;nan
20909;BME280;10614;53.198;6.570;2022-08-25T01:16:06;101882.97;;;22.60;nan
20909;BME280;10614;53.198;6.570;2022-08-25T01:20:11;101890.53;;;22.55;nan
20909;BME280;10614;53.198;6.570;2022-08-25T01:22:15;101879.03;;;22.53;nan
20909;BME280;10614;53.198;6.570;2022-08-25T01:24:25;101883.66;;;22.51;nan
20909;BME280;10614;53.198;6.570;2022-08-25T01:26:32;101884.84;;;22.47;nan
20909;BME280;10614;53.198;6.570;2022-08-25T01:28:35;101875.94;;;22.46;nan
20909;BME280;10614;53.198;6.570;2022-08-25T01:30:37;101877.78;;;22.46;nan
20909;BME280;10614;53.198;6.570;2022-08-25T01:32:39;101881.56;;;22.43;nan
20909;BME280;10614;53.198;6.570;2022-08-25T01:34:43;101876.28;;;22.42;nan
20909;BME280;10614;53.198;6.570;2022-08-25T01:36:45;101879.06;;;22.40;nan
20909;BME280;10614;53.198;6.570;2022-08-25T01:38:49;101876.53;;;22.39;nan
20909;BME280;10614;53.198;6.570;2022-08-25T01:40:50;101877.47;;;22.38;nan
20909;BME280;10614;53.198;6.570;2022-08-25T01:42:57;101877.63;;;22.36;nan
20909;BME280;10614;53.198;6.570;2022-08-25T01:45:03;101878.56;;;22.35;nan
20909;BME280;10614;53.198;6.570;2022-08-25T01:47:05;101867.94;;;22.33;nan
20909;BME280;10614;53.198;6.570;2022-08-25T01:49:07;101868.31;;;22.29;nan
20909;BME280;10614;53.198;6.570;2022-08-25T01:51:09;101871.00;;;22.29;nan
20909;BME280;10614;53.198;6.570;2022-08-25T01:53:13;101872.94;;;22.27;nan
20909;BME280;10614;53.198;6.570;2022-08-25T01:55:19;101870.44;;;22.24;nan
20909;BME280;10614;53.198;6.570;2022-08-25T01:57:21;101865.22;;;22.22;nan
20909;BME280;10614;53.198;6.570;2022-08-25T01:59:25;101872.47;;;22.20;nan
20909;BME280;10614;53.198;6.570;2022-08-25T02:01:27;101857.81;;;22.13;nan
20909;BME280;10614;53.198;6.570;2022-08-25T02:03:29;101865.63;;;22.16;nan
20909;BME280;10614;53.198;6.570;2022-08-25T02:05:31;101872.81;;;22.16;nan
20909;BME280;10614;53.198;6.570;2022-08-25T02:07:33;101862.31;;;22.12;nan
20909;BME280;10614;53.198;6.570;2022-08-25T02:09:36;101857.28;;;22.08;nan
20909;BME280;10614;53.198;6.570;2022-08-25T02:11:42;101859.97;;;22.08;nan
20909;BME280;10614;53.198;6.570;2022-08-25T02:13:44;101855.66;;;22.05;nan
20909;BME280;10614;53.198;6.570;2022-08-25T02:15:49;101858.47;;;22.04;nan
20909;BME280;10614;53.198;6.570;2022-08-25T02:17:51;101859.56;;;22.01;nan
20909;BME280;10614;53.198;6.570;2022-08-25T02:19:52;101860.63;;;21.99;nan
20909;BME280;10614;53.198;6.570;2022-08-25T02:21:56;101859.88;;;21.97;nan
20909;BME280;10614;53.198;6.570;2022-08-25T02:23:58;101857.41;;;21.93;nan
20909;BME280;10614;53.198;6.570;2022-08-25T02:26:00;101858.47;;;21.91;nan
20909;BME280;10614;53.198;6.570;2022-08-25T02:28:04;101856.88;;;21.88;nan
20909;BME280;10614;53.198;6.570;2022-08-25T02:30:06;101853.44;;;21.86;nan
20909;BME280;10614;53.198;6.570;2022-08-25T02:32:08;101849.41;;;21.81;nan
20909;BME280;10614;53.198;6.570;2022-08-25T02:34:10;101853.91;;;21.80;nan
20909;BME280;10614;53.198;6.570;2022-08-25T02:36:12;101860.34;;;21.78;nan
20909;BME280;10614;53.198;6.570;2022-08-25T02:38:15;101852.41;;;21.76;nan
20909;BME280;10614;53.198;6.570;2022-08-25T02:40:17;101855.09;;;21.76;nan
20909;BME280;10614;53.198;6.570;2022-08-25T02:42:20;101851.66;;;21.74;nan
20909;BME280;10614;53.198;6.570;2022-08-25T02:44:25;101855.41;;;21.71;nan
20909;BME280;10614;53.198;6.570;2022-08-25T02:46:26;101854.66;;;21.69;nan
20909;BME280;10614;53.198;6.570;2022-08-25T02:48:28;101856.50;;;21.69;nan
20909;BME280;10614;53.198;6.570;2022-08-25T02:50:30;101855.00;;;21.65;nan
20909;BME280;10614;53.198;6.570;2022-08-25T02:52:32;101851.47;;;21.64;nan
20909;BME280;10614;53.198;6.570;2022-08-25T02:54:35;101856.91;;;21.63;nan
20909;BME280;10614;53.198;6.570;2022-08-25T02:56:37;101856.28;;;21.59;nan
20909;BME280;10614;53.198;6.570;2022-08-25T02:58:40;101854.56;;;21.58;nan
20909;BME280;10614;53.198;6.570;2022-08-25T03:00:43;101852.00;;;21.57;nan
20909;BME280;10614;53.198;6.570;2022-08-25T03:02:46;101850.28;;;21.56;nan
20909;BME280;10614;53.198;6.570;2022-08-25T03:04:47;101856.72;;;21.53;nan
20909;BME280;10614;53.198;6.570;2022-08-25T03:06:49;101847.06;;;21.50;nan
20909;BME280;10614;53.198;6.570;2022-08-25T03:08:51;101853.50;;;21.48;nan
20909;BME280;10614;53.198;6.570;2022-08-25T03:10:53;101850.06;;;21.46;nan
20909;BME280;10614;53.198;6.570;2022-08-25T03:12:55;101855.66;;;21.43;nan
20909;BME280;10614;53.198;6.570;2022-08-25T03:14:56;101855.75;;;21.41;nan
20909;BME280;10614;53.198;6.570;2022-08-25T03:17:00;101853.16;;;21.40;nan
20909;BME280;10614;53.198;6.570;2022-08-25T03:19:02;101857.78;;;21.38;nan
20909;BME280;10614;53.198;6.570;2022-08-25T03:21:04;101852.50;;;21.36;nan
20909;BME280;10614;53.198;6.570;2022-08-25T03:23:06;101855.41;;;21.33;nan
20909;BME280;10614;53.198;6.570;2022-08-25T03:25:08;101844.03;;;21.29;nan
20909;BME280;10614;53.198;6.570;2022-08-25T03:27:28;101844.13;;;21.28;nan
20909;BME280;10614;53.198;6.570;2022-08-25T03:29:31;101850.56;;;21.25;nan
20909;BME280;10614;53.198;6.570;2022-08-25T03:31:34;101839.09;;;21.23;nan
20909;BME280;10614;53.198;6.570;2022-08-25T03:33:37;101838.38;;;21.21;nan
20909;BME280;10614;53.198;6.570;2022-08-25T03:35:39;101838.47;;;21.20;nan
20909;BME280;10614;53.198;6.570;2022-08-25T03:37:41;101838.56;;;21.18;nan
20909;BME280;10614;53.198;6.570;2022-08-25T03:39:43;101836.88;;;21.17;nan
20909;BME280;10614;53.198;6.570;2022-08-25T03:41:45;101834.28;;;21.16;nan
20909;BME280;10614;53.198;6.570;2022-08-25T03:43:48;101831.81;;;21.13;nan
20909;BME280;10614;53.198;6.570;2022-08-25T03:45:50;101827.53;;;21.10;nan
20909;BME280;10614;53.198;6.570;2022-08-25T03:47:52;101831.16;;;21.09;nan
20909;BME280;10614;53.198;6.570;2022-08-25T03:49:56;101832.22;;;21.06;nan
20909;BME280;10614;53.198;6.570;2022-08-25T03:51:57;101827.00;;;21.05;nan
20909;BME280;10614;53.198;6.570;2022-08-25T03:54:01;101824.31;;;21.05;nan
20909;BME280;10614;53.198;6.570;2022-08-25T03:56:03;101821.75;;;21.03;nan
20909;BME280;10614;53.198;6.570;2022-08-25T03:58:05;101819.16;;;21.02;nan
20909;BME280;10614;53.198;6.570;2022-08-25T04:00:08;101821.00;;;21.01;nan
20909;BME280;10614;53.198;6.570;2022-08-25T04:02:11;101825.59;;;20.99;nan
20909;BME280;10614;53.198;6.570;2022-08-25T04:04:14;101817.69;;;20.98;nan
20909;BME280;10614;53.198;6.570;2022-08-25T04:06:18;101819.59;;;20.96;nan
20909;BME280;10614;53.198;6.570;2022-08-25T04:08:20;101818.00;;;20.93;nan
20909;BME280;10614;53.198;6.570;2022-08-25T04:10:22;101821.72;;;20.91;nan
20909;BME280;10614;53.198;6.570;2022-08-25T04:12:24;101827.19;;;20.89;nan
20909;BME280;10614;53.198;6.570;2022-08-25T04:14:26;101827.38;;;20.86;nan
20909;BME280;10614;53.198;6.570;2022-08-25T04:16:30;101818.72;;;20.82;nan
20909;BME280;10614;53.198;6.570;2022-08-25T04:18:31;101819.56;;;20.83;nan
20909;BME280;10614;53.198;6.570;2022-08-25T04:20:33;101823.31;;;20.80;nan
20909;BME280;10614;53.198;6.570;2022-08-25T04:22:37;101806.63;;;20.77;nan
20909;BME280;10614;53.198;6.570;2022-08-25T04:24:39;101817.41;;;20.75;nan
20909;BME280;10614;53.198;6.570;2022-08-25T04:26:43;101818.50;;;20.73;nan
20909;BME280;10614;53.198;6.570;2022-08-25T04:28:45;101822.09;;;20.72;nan
20909;BME280;10614;53.198;6.570;2022-08-25T04:30:47;101816.00;;;20.70;nan
20909;BME280;10614;53.198;6.570;2022-08-25T04:32:49;101817.94;;;20.68;nan
20909;BME280;10614;53.198;6.570;2022-08-25T04:34:51;101807.44;;;20.64;nan
20909;BME280;10614;53.198;6.570;2022-08-25T04:36:53;101814.59;;;20.64;nan
20909;BME280;10614;53.198;6.570;2022-08-25T04:38:56;101817.38;;;20.62;nan
20909;BME280;10614;53.198;6.570;2022-08-25T04:40:59;101814.06;;;20.59;nan
20909;BME280;10614;53.198;6.570;2022-08-25T04:43:01;101808.13;;;20.54;nan
20909;BME280;10614;53.198;6.570;2022-08-25T04:45:05;101810.91;;;20.52;nan
20909;BME280;10614;53.198;6.570;2022-08-25T04:47:07;101816.25;;;20.52;nan
20909;BME280;10614;53.198;6.570;2022-08-25T04:49:09;101811.88;;;20.51;nan
20909;BME280;10614;53.198;6.570;2022-08-25T04:51:13;101812.06;;;20.48;nan
20909;BME280;10614;53.198;6.570;2022-08-25T04:53:16;101804.16;;;20.47;nan
20909;BME280;10614;53.198;6.570;2022-08-25T04:55:19;101806.81;;;20.47;nan
20909;BME280;10614;53.198;6.570;2022-08-25T04:57:21;101816.66;;;20.46;nan
20909;BME280;10614;53.198;6.570;2022-08-25T04:59:22;101808.75;;;20.44;nan
20909;BME280;10614;53.198;6.570;2022-08-25T05:01:25;101810.66;;;20.42;nan
20909;BME280;10614;53.198;6.570;2022-08-25T05:03:27;101808.94;;;20.41;nan
20909;BME280;10614;53.198;6.570;2022-08-25T05:05:30;101808.19;;;20.39;nan
20909;BME280;10614;53.198;6.570;2022-08-25T05:07:32;101803.78;;;20.38;nan
20909;BME280;10614;53.198;6.570;2022-08-25T05:09:34;101803.88;;;20.37;nan
20909;BME280;10614;53.198;6.570;2022-08-25T05:11:39;101800.34;;;20.36;nan
20909;BME280;10614;53.198;6.570;2022-08-25T05:13:42;101803.03;;;20.36;nan
20909;BME280;10614;53.198;6.570;2022-08-25T05:15:50;101800.47;;;20.35;nan
20909;BME280;10614;53.198;6.570;2022-08-25T05:17:52;101802.19;;;20.36;nan
20909;BME280;10614;53.198;6.570;2022-08-25T05:19:54;101802.28;;;20.34;nan
20909;BME280;10614;53.198;6.570;2022-08-25T05:21:56;101797.97;;;20.32;nan
20909;BME280;10614;53.198;6.570;2022-08-25T05:24:00;101804.22;;;20.32;nan
20909;BME280;10614;53.198;6.570;2022-08-25T05:26:04;101799.81;;;20.31;nan
20909;BME280;10614;53.198;6.570;2022-08-25T05:28:07;101806.00;;;20.32;nan
20909;BME280;10614;53.198;6.570;2022-08-25T05:30:10;101801.53;;;20.32;nan
20909;BME280;10614;53.198;6.570;2022-08-25T05:32:12;101802.38;;;20.33;nan
20909;BME280;10614;53.198;6.570;2022-08-25T05:34:14;101809.44;;;20.34;nan
20909;BME280;10614;53.198;6.570;2022-08-25T05:36:17;101812.13;;;20.34;nan
20909;BME280;10614;53.198;6.570;2022-08-25T05:38:20;101818.44;;;20.33;nan
20909;BME280;10614;53.198;6.570;2022-08-25T05:40:21;101809.56;;;20.32;nan
20909;BME280;10614;53.198;6.570;2022-08-25T05:42:23;101810.50;;;20.31;nan
20909;BME280;10614;53.198;6.570;2022-08-25T05:44:26;101809.66;;;20.31;nan
20909;BME280;10614;53.198;6.570;2022-08-25T05:46:28;101813.19;;;20.31;nan
20909;BME280;10614;53.198;6.570;2022-08-25T05:48:30;101813.19;;;20.31;nan
20909;BME280;10614;53.198;6.570;2022-08-25T05:50:31;101813.19;;;20.31;nan
20909;BME280;10614;53.198;6.570;2022-08-25T05:52:33;101814.03;;;20.32;nan
20909;BME280;10614;53.198;6.570;2022-08-25T05:54:36;101806.88;;;20.32;nan
20909;BME280;10614;53.198;6.570;2022-08-25T05:56:38;101816.69;;;20.32;nan
20909;BME280;10614;53.198;6.570;2022-08-25T05:58:40;101808.69;;;20.32;nan
20909;BME280;10614;53.198;6.570;2022-08-25T06:00:44;101809.56;;;20.32;nan
20909;BME280;10614;53.198;6.570;2022-08-25T06:02:46;101818.31;;;20.34;nan
20909;BME280;10614;53.198;6.570;2022-08-25T06:04:48;101814.69;;;20.35;nan
20909;BME280;10614;53.198;6.570;2022-08-25T06:06:50;101814.78;;;20.34;nan
20909;BME280;10614;53.198;6.570;2022-08-25T06:08:54;101812.97;;;20.34;nan
20909;BME280;10614;53.198;6.570;2022-08-25T06:10:55;101806.69;;;20.35;nan
20909;BME280;10614;53.198;6.570;2022-08-25T06:12:57;101807.53;;;20.36;nan
20909;BME280;10614;53.198;6.570;2022-08-25T06:14:59;101806.56;;;20.37;nan
20909;BME280;10614;53.198;6.570;2022-08-25T06:17:02;101807.44;;;20.37;nan
20909;BME280;10614;53.198;6.570;2022-08-25T06:19:04;101809.22;;;20.37;nan
20909;BME280;10614;53.198;6.570;2022-08-25T06:21:07;101802.94;;;20.38;nan
20909;BME280;10614;53.198;6.570;2022-08-25T06:23:09;101800.25;;;20.38;nan
20909;BME280;10614;53.198;6.570;2022-08-25T06:25:14;101808.06;;;20.41;nan
20909;BME280;10614;53.198;6.570;2022-08-25T06:27:16;101809.81;;;20.42;nan
20909;BME280;10614;53.198;6.570;2022-08-25T06:29:19;101800.81;;;20.43;nan
20909;BME280;10614;53.198;6.570;2022-08-25T06:31:21;101801.66;;;20.43;nan
20909;BME280;10614;53.198;6.570;2022-08-25T06:33:24;101801.56;;;20.45;nan
20909;BME280;10614;53.198;6.570;2022-08-25T06:35:26;101802.41;;;20.45;nan
20909;BME280;10614;53.198;6.570;2022-08-25T06:37:29;101803.41;;;20.44;nan
20909;BME280;10614;53.198;6.570;2022-08-25T06:39:31;101805.00;;;20.47;nan
20909;BME280;10614;53.198;6.570;2022-08-25T06:41:32;101802.31;;;20.47;nan
20909;BME280;10614;53.198;6.570;2022-08-25T06:43:34;101806.72;;;20.48;nan
20909;BME280;10614;53.198;6.570;2022-08-25T06:45:36;101804.78;;;20.50;nan
20909;BME280;10614;53.198;6.570;2022-08-25T06:47:38;101802.03;;;20.52;nan
20909;BME280;10614;53.198;6.570;2022-08-25T06:49:41;101801.06;;;20.53;nan
20909;BME280;10614;53.198;6.570;2022-08-25T06:51:43;101800.97;;;20.54;nan
20909;BME280;10614;53.198;6.570;2022-08-25T06:53:46;101804.47;;;20.55;nan
20909;BME280;10614;53.198;6.570;2022-08-25T06:55:55;101802.59;;;20.57;nan
20909;BME280;10614;53.198;6.570;2022-08-25T06:57:57;101803.44;;;20.57;nan
20909;BME280;10614;53.198;6.570;2022-08-25T06:59:58;101801.53;;;20.59;nan
20909;BME280;10614;53.198;6.570;2022-08-25T07:02:00;101808.50;;;20.62;nan
20909;BME280;10614;53.198;6.570;2022-08-25T07:04:04;101803.16;;;20.62;nan
20909;BME280;10614;53.198;6.570;2022-08-25T07:06:08;101812.78;;;20.64;nan
20909;BME280;10614;53.198;6.570;2022-08-25T07:08:10;101810.84;;;20.66;nan
20909;BME280;10614;53.198;6.570;2022-08-25T07:10:12;101810.78;;;20.68;nan
20909;BME280;10614;53.198;6.570;2022-08-25T07:12:13;101807.88;;;20.71;nan
20909;BME280;10614;53.198;6.570;2022-08-25T07:14:17;101810.56;;;20.71;nan
20909;BME280;10614;53.198;6.570;2022-08-25T07:16:20;101810.34;;;20.74;nan
20909;BME280;10614;53.198;6.570;2022-08-25T07:18:21;101809.38;;;20.75;nan
20909;BME280;10614;53.198;6.570;2022-08-25T07:20:23;101806.81;;;20.74;nan
20909;BME280;10614;53.198;6.570;2022-08-25T07:22:26;101807.25;;;20.80;nan
20909;BME280;10614;53.198;6.570;2022-08-25T07:24:28;101811.66;;;20.81;nan
20909;BME280;10614;53.198;6.570;2022-08-25T07:26:31;101805.25;;;20.84;nan
20909;BME280;10614;53.198;6.570;2022-08-25T07:28:34;101810.47;;;20.85;nan
20909;BME280;10614;53.198;6.570;2022-08-25T07:30:36;101803.09;;;20.89;nan
20909;BME280;10614;53.198;6.570;2022-08-25T07:32:38;101804.03;;;20.88;nan
20909;BME280;10614;53.198;6.570;2022-08-25T07:34:39;101810.91;;;20.92;nan
20909;BME280;10614;53.198;6.570;2022-08-25T07:36:59;101816.03;;;20.95;nan
20909;BME280;10614;53.198;6.570;2022-08-25T07:39:04;101808.91;;;20.96;nan
20909;BME280;10614;53.198;6.570;2022-08-25T07:41:06;101815.72;;;21.00;nan
20909;BME280;10614;53.198;6.570;2022-08-25T07:43:08;101817.34;;;21.02;nan
20909;BME280;10614;53.198;6.570;2022-08-25T07:45:11;101810.06;;;21.04;nan
20909;BME280;10614;53.198;6.570;2022-08-25T07:47:13;101821.44;;;21.08;nan
20909;BME280;10614;53.198;6.570;2022-08-25T07:49:15;101820.38;;;21.11;nan
20909;BME280;10614;53.198;6.570;2022-08-25T07:51:17;101820.25;;;21.12;nan
20909;BME280;10614;53.198;6.570;2022-08-25T07:53:18;101824.53;;;21.15;nan
20909;BME280;10614;53.198;6.570;2022-08-25T07:55:22;101819.94;;;21.17;nan
20909;BME280;10614;53.198;6.570;2022-08-25T07:57:24;101818.97;;;21.18;nan
20909;BME280;10614;53.198;6.570;2022-08-25T07:59:27;101818.66;;;21.22;nan
20909;BME280;10614;53.198;6.570;2022-08-25T08:01:29;101827.44;;;21.24;nan
20909;BME280;10614;53.198;6.570;2022-08-25T08:03:31;101828.06;;;21.28;nan
20909;BME280;10614;53.198;6.570;2022-08-25T08:05:34;101830.75;;;21.28;nan
20909;BME280;10614;53.198;6.570;2022-08-25T08:07:37;101826.91;;;21.32;nan
20909;BME280;10614;53.198;6.570;2022-08-25T08:09:38;101822.28;;;21.34;nan
20909;BME280;10614;53.198;6.570;2022-08-25T08:11:41;101831.84;;;21.38;nan
20909;BME280;10614;53.198;6.570;2022-08-25T08:13:44;101833.25;;;21.44;nan
20909;BME280;10614;53.198;6.570;2022-08-25T08:15:47;101833.06;;;21.47;nan
20909;BME280;10614;53.198;6.570;2022-08-25T08:17:48;101828.31;;;21.50;nan
20909;BME280;10614;53.198;6.570;2022-08-25T08:19:50;101836.03;;;21.55;nan
20909;BME280;10614;53.198;6.570;2022-08-25T08:21:52;101829.38;;;21.61;nan
20909;BME280;10614;53.198;6.570;2022-08-25T08:23:55;101832.78;;;21.63;nan
20909;BME280;10614;53.198;6.570;2022-08-25T08:25:56;101828.94;;;21.67;nan
20909;BME280;10614;53.198;6.570;2022-08-25T08:27:59;101830.66;;;21.68;nan
20909;BME280;10614;53.198;6.570;2022-08-25T08:30:02;101825.72;;;21.75;nan
20909;BME280;10614;53.198;6.570;2022-08-25T08:32:06;101825.59;;;21.76;nan
20909;BME280;10614;53.198;6.570;2022-08-25T08:34:08;101813.91;;;21.77;nan
20909;BME280;10614;53.198;6.570;2022-08-25T08:36:11;101818.00;;;21.83;nan
20909;BME280;10614;53.198;6.570;2022-08-25T08:38:13;101813.25;;;21.86;nan
20909;BME280;10614;53.198;6.570;2022-08-25T08:40:18;101817.53;;;21.89;nan
20909;BME280;10614;53.198;6.570;2022-08-25T08:42:45;101805.75;;;21.91;nan
20909;BME280;10614;53.198;6.570;2022-08-25T08:45:03;101796.72;;;21.92;nan
20909;BME280;10614;53.198;6.570;2022-08-25T08:47:10;101802.50;;;21.99;nan
20909;BME280;10614;53.198;6.570;2022-08-25T08:49:23;101803.88;;;22.05;nan
20909;BME280;10614;53.198;6.570;2022-08-25T08:51:31;101802.69;;;22.09;nan
20909;BME280;10614;53.198;6.570;2022-08-25T08:53:40;101798.81;;;22.13;nan
20909;BME280;10614;53.198;6.570;2022-08-25T08:55:47;101800.41;;;22.16;nan
20909;BME280;10614;53.198;6.570;2022-08-25T08:57:51;101795.78;;;22.18;nan
20909;BME280;10614;53.198;6.570;2022-08-25T08:59:59;101788.19;;;22.24;nan
20909;BME280;10614;53.198;6.570;2022-08-25T09:02:02;101793.06;;;22.30;nan
20909;BME280;10614;53.198;6.570;2022-08-25T09:04:11;101785.66;;;22.34;nan
20909;BME280;10614;53.198;6.570;2022-08-25T09:06:20;101785.31;;;22.39;nan
20909;BME280;10614;53.198;6.570;2022-08-25T09:08:23;101782.41;;;22.42;nan
20909;BME280;10614;53.198;6.570;2022-08-25T09:10:31;101770.59;;;22.44;nan
20909;BME280;10614;53.198;6.570;2022-08-25T09:12:38;101768.53;;;22.48;nan
20909;BME280;10614;53.198;6.570;2022-08-25T09:14:57;101767.44;;;22.50;nan
20909;BME280;10614;53.198;6.570;2022-08-25T09:17:03;101769.03;;;22.53;nan
20909;BME280;10614;53.198;6.570;2022-08-25T09:19:18;101767.84;;;22.57;nan
20909;BME280;10614;53.198;6.570;2022-08-25T09:21:27;101763.06;;;22.61;nan
20909;BME280;10614;53.198;6.570;2022-08-25T09:23:37;101761.97;;;22.63;nan
20909;BME280;10614;53.198;6.570;2022-08-25T09:25:50;101760.78;;;22.67;nan
20909;BME280;10614;53.198;6.570;2022-08-25T09:28:04;101763.22;;;22.70;nan
20909;BME280;10614;53.198;6.570;2022-08-25T09:30:11;101757.41;;;22.76;nan
20909;BME280;10614;53.198;6.570;2022-08-25T09:32:16;101750.69;;;22.82;nan
20909;BME280;10614;53.198;6.570;2022-08-25T09:34:19;101742.28;;;22.87;nan
20909;BME280;10614;53.198;6.570;2022-08-25T09:36:22;101743.50;;;22.94;nan
20909;BME280;10614;53.198;6.570;2022-08-25T09:38:26;101744.13;;;22.97;nan
20909;BME280;10614;53.198;6.570;2022-08-25T09:40:30;101741.22;;;23.01;nan
20909;BME280;10614;53.198;6.570;2022-08-25T09:42:46;101740.75;;;23.07;nan
20909;BME280;10614;53.198;6.570;2022-08-25T09:44:48;101735.13;;;23.10;nan
20909;BME280;10614;53.198;6.570;2022-08-25T09:47:00;101728.66;;;23.12;nan
20909;BME280;10614;53.198;6.570;2022-08-25T09:49:11;101722.09;;;23.16;nan
20909;BME280;10614;53.198;6.570;2022-08-25T09:51:20;101726.34;;;23.19;nan
20909;BME280;10614;53.198;6.570;2022-08-25T09:53:24;101733.06;;;23.25;nan
20909;BME280;10614;53.198;6.570;2022-08-25T09:55:30;101724.63;;;23.29;nan
20909;BME280;10614;53.198;6.570;2022-08-25T09:57:36;101722.31;;;23.36;nan
20909;BME280;10614;53.198;6.570;2022-08-25T09:59:44;101716.34;;;23.44;nan
20909;BME280;10614;53.198;6.570;2022-08-25T10:01:52;101704.22;;;23.49;nan
20909;BME280;10614;53.198;6.570;2022-08-25T10:03:59;101703.84;;;23.54;nan
20909;BME280;10614;53.198;6.570;2022-08-25T10:06:04;101705.19;;;23.59;nan
20909;BME280;10614;53.198;6.570;2022-08-25T10:08:11;101709.34;;;23.64;nan
20909;BME280;10614;53.198;6.570;2022-08-25T10:10:17;101699.91;;;23.69;nan
20909;BME280;10614;53.198;6.570;2022-08-25T10:12:28;101695.25;;;23.71;nan
20909;BME280;10614;53.198;6.570;2022-08-25T10:14:34;101687.84;;;23.75;nan
20909;BME280;10614;53.198;6.570;2022-08-25T10:16:38;101679.50;;;23.78;nan
20909;BME280;10614;53.198;6.570;2022-08-25T10:18:40;101687.19;;;23.83;nan
20909;BME280;10614;53.198;6.570;2022-08-25T10:20:43;101681.31;;;23.89;nan
20909;BME280;10614;53.198;6.570;2022-08-25T10:23:09;101679.94;;;23.94;nan
20909;BME280;10614;53.198;6.570;2022-08-25T10:25:13;101682.38;;;23.97;nan
20909;BME280;10614;53.198;6.570;2022-08-25T10:27:22;101688.25;;;24.02;nan
20909;BME280;10614;53.198;6.570;2022-08-25T10:30:02;101672.56;;;24.08;nan
20909;BME280;10614;53.198;6.570;2022-08-25T10:32:09;101673.75;;;24.15;nan
20909;BME280;10614;53.198;6.570;2022-08-25T10:34:38;101667.72;;;24.22;nan
20909;BME280;10614;53.198;6.570;2022-08-25T10:36:52;101663.50;;;24.30;nan
20909;BME280;10614;53.198;6.570;2022-08-25T10:38:58;101657.00;;;24.32;nan
20909;BME280;10614;53.198;6.570;2022-08-25T10:43:27;101658.19;;;24.39;nan
20909;BME280;10614;53.198;6.570;2022-08-25T10:45:36;101658.53;;;24.46;nan
20909;BME280;10614;53.198;6.570;2022-08-25T10:47:55;101653.78;;;24.50;nan
20909;BME280;10614;53.198;6.570;2022-08-25T10:50:04;101659.50;;;24.56;nan
20909;BME280;10614;53.198;6.570;2022-08-25T10:52:13;101658.22;;;24.60;nan
20909;BME280;10614;53.198;6.570;2022-08-25T10:54:35;101650.03;;;24.62;nan
20909;BME280;10614;53.198;6.570;2022-08-25T10:56:44;101657.56;;;24.68;nan
20909;BME280;10614;53.198;6.570;2022-08-25T10:58:59;101655.03;;;24.76;nan
20909;BME280;10614;53.198;6.570;2022-08-25T11:01:12;101658.19;;;24.81;nan
20909;BME280;10614;53.198;6.570;2022-08-25T11:03:30;101646.59;;;24.91;nan
20909;BME280;10614;53.198;6.570;2022-08-25T11:05:38;101645.22;;;24.96;nan
20909;BME280;10614;53.198;6.570;2022-08-25T11:07:45;101640.16;;;25.03;nan
20909;BME280;10614;53.198;6.570;2022-08-25T11:09:51;101643.28;;;25.08;nan